sensor_id;sensor_type;location;lat;lon;timestamp;pressure;altitude;pressure_sealevel;temperature;humidity
28626;BME280;18905;42.668;23.364;2022-07-24T00:01:26;95181.66;;;29.84;42.11
28626;BME280;18905;42.668;23.364;2022-07-24T00:03:51;95184.63;;;29.77;43.13
28626;BME280;18905;42.668;23.364;2022-07-24T00:06:16;95171.06;;;30.08;42.11
28626;BME280;18905;42.668;23.364;2022-07-24T00:08:42;95174.66;;;30.08;41.44
28626;BME280;18905;42.668;23.364;2022-07-24T00:11:07;95174.91;;;30.14;41.82
28626;BME280;18905;42.668;23.364;2022-07-24T00:13:33;95154.25;;;30.40;40.79
28626;BME280;18905;42.668;23.364;2022-07-24T00:15:58;95166.25;;;30.78;40.66
28626;BME280;18905;42.668;23.364;2022-07-24T00:18:24;95179.75;;;30.38;42.28
28626;BME280;18905;42.668;23.364;2022-07-24T00:20:49;95186.03;;;29.69;44.05
28626;BME280;18905;42.668;23.364;2022-07-24T00:23:15;95178.09;;;29.84;43.93
28626;BME280;18905;42.668;23.364;2022-07-24T00:25:40;95187.63;;;29.99;43.32
28626;BME280;18905;42.668;23.364;2022-07-24T00:28:05;95165.56;;;30.20;42.92
28626;BME280;18905;42.668;23.364;2022-07-24T00:30:31;95186.38;;;30.44;41.74
28626;BME280;18905;42.668;23.364;2022-07-24T00:32:56;95174.44;;;30.56;41.10
28626;BME280;18905;42.668;23.364;2022-07-24T00:35:22;95189.72;;;30.64;41.00
28626;BME280;18905;42.668;23.364;2022-07-24T00:37:47;95183.16;;;30.58;41.90
28626;BME280;18905;42.668;23.364;2022-07-24T00:40:13;95188.88;;;30.26;42.60
28626;BME280;18905;42.668;23.364;2022-07-24T00:42:40;95177.69;;;30.14;42.95
28626;BME280;18905;42.668;23.364;2022-07-24T00:45:06;95165.41;;;29.83;42.44
28626;BME280;18905;42.668;23.364;2022-07-24T00:47:32;95153.13;;;30.09;43.17
28626;BME280;18905;42.668;23.364;2022-07-24T00:49:57;95177.53;;;30.46;42.34
28626;BME280;18905;42.668;23.364;2022-07-24T00:52:23;95170.66;;;30.50;40.70
28626;BME280;18905;42.668;23.364;2022-07-24T00:54:48;95182.31;;;30.04;41.99
28626;BME280;18905;42.668;23.364;2022-07-24T00:57:14;95155.88;;;30.12;41.61
28626;BME280;18905;42.668;23.364;2022-07-24T00:59:39;95181.72;;;30.25;42.16
28626;BME280;18905;42.668;23.364;2022-07-24T01:02:04;95177.69;;;30.14;43.20
28626;BME280;18905;42.668;23.364;2022-07-24T01:04:30;95179.56;;;29.88;43.31
28626;BME280;18905;42.668;23.364;2022-07-24T01:06:55;95174.31;;;29.62;43.82
28626;BME280;18905;42.668;23.364;2022-07-24T01:09:21;95183.94;;;27.99;47.89
28626;BME280;18905;42.668;23.364;2022-07-24T01:11:46;95176.88;;;27.94;49.44
28626;BME280;18905;42.668;23.364;2022-07-24T01:14:12;95163.69;;;28.02;49.85
28626;BME280;18905;42.668;23.364;2022-07-24T01:16:38;95175.53;;;27.83;50.50
28626;BME280;18905;42.668;23.364;2022-07-24T01:19:04;95166.88;;;28.00;49.72
28626;BME280;18905;42.668;23.364;2022-07-24T01:21:29;95175.91;;;27.85;50.26
28626;BME280;18905;42.668;23.364;2022-07-24T01:23:55;95179.69;;;28.53;46.71
28626;BME280;18905;42.668;23.364;2022-07-24T01:26:20;95157.94;;;28.84;45.27
28626;BME280;18905;42.668;23.364;2022-07-24T01:28:46;95176.97;;;28.85;45.18
28626;BME280;18905;42.668;23.364;2022-07-24T01:31:11;95171.53;;;28.62;46.63
28626;BME280;18905;42.668;23.364;2022-07-24T01:33:37;95167.22;;;28.77;47.08
28626;BME280;18905;42.668;23.364;2022-07-24T01:36:02;95167.72;;;29.08;44.56
28626;BME280;18905;42.668;23.364;2022-07-24T01:38:28;95165.72;;;29.08;45.34
28626;BME280;18905;42.668;23.364;2022-07-24T01:40:54;95169.97;;;28.61;43.30
28626;BME280;18905;42.668;23.364;2022-07-24T01:43:20;95174.22;;;28.66;44.67
28626;BME280;18905;42.668;23.364;2022-07-24T01:45:45;95175.47;;;28.65;43.90
28626;BME280;18905;42.668;23.364;2022-07-24T01:48:11;95163.25;;;28.94;45.11
28626;BME280;18905;42.668;23.364;2022-07-24T01:50:36;95161.75;;;28.74;44.71
28626;BME280;18905;42.668;23.364;2022-07-24T01:53:02;95152.28;;;28.87;43.77
28626;BME280;18905;42.668;23.364;2022-07-24T01:55:28;95127.47;;;28.80;43.78
28626;BME280;18905;42.668;23.364;2022-07-24T01:57:54;95143.81;;;28.94;43.24
28626;BME280;18905;42.668;23.364;2022-07-24T02:00:20;95141.03;;;29.10;43.95
28626;BME280;18905;42.668;23.364;2022-07-24T02:02:45;95154.00;;;29.33;41.88
28626;BME280;18905;42.668;23.364;2022-07-24T02:05:12;95147.63;;;29.64;40.50
28626;BME280;18905;42.668;23.364;2022-07-24T02:07:40;95128.97;;;29.77;41.89
28626;BME280;18905;42.668;23.364;2022-07-24T02:10:06;95151.44;;;29.99;39.38
28626;BME280;18905;42.668;23.364;2022-07-24T02:12:32;95136.78;;;29.82;40.23
28626;BME280;18905;42.668;23.364;2022-07-24T02:14:58;95151.00;;;30.00;39.11
28626;BME280;18905;42.668;23.364;2022-07-24T02:17:23;95139.75;;;30.04;38.62
28626;BME280;18905;42.668;23.364;2022-07-24T02:19:49;95145.75;;;30.31;38.08
28626;BME280;18905;42.668;23.364;2022-07-24T02:22:14;95150.88;;;30.73;38.32
28626;BME280;18905;42.668;23.364;2022-07-24T02:24:39;95135.81;;;30.83;37.34
28626;BME280;18905;42.668;23.364;2022-07-24T02:27:05;95149.53;;;30.90;37.43
28626;BME280;18905;42.668;23.364;2022-07-24T02:29:30;95126.75;;;30.54;38.45
28626;BME280;18905;42.668;23.364;2022-07-24T02:31:56;95120.03;;;30.39;37.55
28626;BME280;18905;42.668;23.364;2022-07-24T02:34:21;95131.53;;;30.54;36.99
28626;BME280;18905;42.668;23.364;2022-07-24T02:36:47;95147.88;;;30.27;38.23
28626;BME280;18905;42.668;23.364;2022-07-24T02:39:12;95134.94;;;29.63;39.13
28626;BME280;18905;42.668;23.364;2022-07-24T02:41:37;95159.25;;;29.43;40.78
28626;BME280;18905;42.668;23.364;2022-07-24T02:44:03;95165.44;;;29.03;41.14
28626;BME280;18905;42.668;23.364;2022-07-24T02:46:28;95159.50;;;28.85;41.40
28626;BME280;18905;42.668;23.364;2022-07-24T02:48:54;95145.88;;;29.38;41.74
28626;BME280;18905;42.668;23.364;2022-07-24T02:51:19;95150.56;;;30.02;39.11
28626;BME280;18905;42.668;23.364;2022-07-24T02:53:44;95149.78;;;30.01;39.14
28626;BME280;18905;42.668;23.364;2022-07-24T02:56:10;95157.44;;;29.97;38.59
28626;BME280;18905;42.668;23.364;2022-07-24T02:58:35;95153.56;;;30.07;38.75
28626;BME280;18905;42.668;23.364;2022-07-24T03:01:01;95157.41;;;30.13;39.37
28626;BME280;18905;42.668;23.364;2022-07-24T03:03:26;95164.31;;;29.64;40.09
28626;BME280;18905;42.668;23.364;2022-07-24T03:05:52;95149.53;;;29.67;40.37
28626;BME280;18905;42.668;23.364;2022-07-24T03:08:17;95157.69;;;30.03;39.18
28626;BME280;18905;42.668;23.364;2022-07-24T03:10:42;95165.50;;;30.08;39.68
28626;BME280;18905;42.668;23.364;2022-07-24T03:13:08;95153.00;;;30.00;39.85
28626;BME280;18905;42.668;23.364;2022-07-24T03:15:33;95150.28;;;30.12;39.49
28626;BME280;18905;42.668;23.364;2022-07-24T03:17:59;95141.72;;;29.91;39.58
28626;BME280;18905;42.668;23.364;2022-07-24T03:20:27;95154.00;;;29.33;41.18
28626;BME280;18905;42.668;23.364;2022-07-24T03:22:54;95165.66;;;28.92;41.32
28626;BME280;18905;42.668;23.364;2022-07-24T03:25:20;95154.91;;;28.42;43.82
28626;BME280;18905;42.668;23.364;2022-07-24T03:27:45;95173.28;;;28.17;44.14
28626;BME280;18905;42.668;23.364;2022-07-24T03:30:13;95174.34;;;28.42;43.44
28626;BME280;18905;42.668;23.364;2022-07-24T03:32:39;95154.75;;;29.33;41.78
28626;BME280;18905;42.668;23.364;2022-07-24T03:35:05;95156.16;;;29.41;41.54
28626;BME280;18905;42.668;23.364;2022-07-24T03:37:30;95128.88;;;29.04;42.96
28626;BME280;18905;42.668;23.364;2022-07-24T03:39:56;95159.63;;;29.13;43.42
28626;BME280;18905;42.668;23.364;2022-07-24T03:42:21;95148.16;;;29.59;42.02
28626;BME280;18905;42.668;23.364;2022-07-24T03:44:47;95156.69;;;29.81;41.62
28626;BME280;18905;42.668;23.364;2022-07-24T03:47:12;95165.88;;;29.94;40.98
28626;BME280;18905;42.668;23.364;2022-07-24T03:49:38;95172.19;;;29.82;40.66
28626;BME280;18905;42.668;23.364;2022-07-24T03:52:03;95167.09;;;29.64;41.02
28626;BME280;18905;42.668;23.364;2022-07-24T03:54:29;95145.88;;;29.54;41.02
28626;BME280;18905;42.668;23.364;2022-07-24T03:56:55;95177.97;;;29.27;41.78
28626;BME280;18905;42.668;23.364;2022-07-24T03:59:20;95144.09;;;29.16;41.24
28626;BME280;18905;42.668;23.364;2022-07-24T04:01:46;95143.38;;;28.44;42.66
28626;BME280;18905;42.668;23.364;2022-07-24T04:04:11;95168.34;;;28.24;42.84
28626;BME280;18905;42.668;23.364;2022-07-24T04:06:37;95165.59;;;28.96;41.32
28626;BME280;18905;42.668;23.364;2022-07-24T04:09:03;95163.25;;;28.42;43.27
28626;BME280;18905;42.668;23.364;2022-07-24T04:11:29;95173.69;;;27.53;45.47
28626;BME280;18905;42.668;23.364;2022-07-24T04:13:55;95156.34;;;27.26;49.07
28626;BME280;18905;42.668;23.364;2022-07-24T04:16:21;95175.22;;;26.85;50.20
28626;BME280;18905;42.668;23.364;2022-07-24T04:18:46;95183.03;;;26.64;52.10
28626;BME280;18905;42.668;23.364;2022-07-24T04:21:12;95170.50;;;25.92;55.39
28626;BME280;18905;42.668;23.364;2022-07-24T04:23:37;95154.34;;;25.87;55.55
28626;BME280;18905;42.668;23.364;2022-07-24T04:26:03;95171.34;;;25.52;58.41
28626;BME280;18905;42.668;23.364;2022-07-24T04:28:29;95164.31;;;24.97;61.21
28626;BME280;18905;42.668;23.364;2022-07-24T04:30:54;95173.06;;;24.88;62.83
28626;BME280;18905;42.668;23.364;2022-07-24T04:33:19;95178.16;;;25.41;61.67
28626;BME280;18905;42.668;23.364;2022-07-24T04:35:45;95151.94;;;25.56;59.78
28626;BME280;18905;42.668;23.364;2022-07-24T04:38:10;95167.72;;;26.52;56.81
28626;BME280;18905;42.668;23.364;2022-07-24T04:40:35;95160.94;;;27.10;54.05
28626;BME280;18905;42.668;23.364;2022-07-24T04:43:01;95162.63;;;27.73;51.80
28626;BME280;18905;42.668;23.364;2022-07-24T04:45:26;95119.16;;;28.25;49.86
28626;BME280;18905;42.668;23.364;2022-07-24T04:47:52;95167.38;;;28.70;48.30
28626;BME280;18905;42.668;23.364;2022-07-24T04:50:17;95154.06;;;29.13;46.68
28626;BME280;18905;42.668;23.364;2022-07-24T04:52:42;95177.78;;;29.18;45.87
28626;BME280;18905;42.668;23.364;2022-07-24T04:55:09;95182.03;;;29.54;46.72
28626;BME280;18905;42.668;23.364;2022-07-24T04:57:35;95167.84;;;29.81;44.74
28626;BME280;18905;42.668;23.364;2022-07-24T05:00:00;95162.63;;;30.52;42.81
28626;BME280;18905;42.668;23.364;2022-07-24T05:02:26;95168.81;;;31.10;41.22
28626;BME280;18905;42.668;23.364;2022-07-24T05:04:51;95151.19;;;31.38;40.08
28626;BME280;18905;42.668;23.364;2022-07-24T05:07:17;95181.09;;;31.96;39.28
28626;BME280;18905;42.668;23.364;2022-07-24T05:09:42;95182.31;;;31.95;37.60
28626;BME280;18905;42.668;23.364;2022-07-24T05:12:08;95186.88;;;31.55;38.29
28626;BME280;18905;42.668;23.364;2022-07-24T05:14:33;95194.81;;;30.41;40.91
28626;BME280;18905;42.668;23.364;2022-07-24T05:16:59;95200.75;;;29.98;40.34
28626;BME280;18905;42.668;23.364;2022-07-24T05:19:24;95141.34;;;29.76;41.45
28626;BME280;18905;42.668;23.364;2022-07-24T05:21:49;95182.19;;;29.79;41.75
28626;BME280;18905;42.668;23.364;2022-07-24T05:24:15;95177.31;;;29.83;42.44
28626;BME280;18905;42.668;23.364;2022-07-24T05:26:40;95190.91;;;29.65;42.48
28626;BME280;18905;42.668;23.364;2022-07-24T05:29:05;95189.69;;;29.66;43.60
28626;BME280;18905;42.668;23.364;2022-07-24T05:31:32;95189.13;;;28.91;45.13
28626;BME280;18905;42.668;23.364;2022-07-24T05:33:58;95197.88;;;28.90;45.94
28626;BME280;18905;42.668;23.364;2022-07-24T05:36:24;95189.34;;;29.32;45.06
28626;BME280;18905;42.668;23.364;2022-07-24T05:38:50;95190.06;;;29.68;44.64
28626;BME280;18905;42.668;23.364;2022-07-24T05:41:15;95166.16;;;29.99;43.58
28626;BME280;18905;42.668;23.364;2022-07-24T05:43:41;95180.78;;;30.44;42.19
28626;BME280;18905;42.668;23.364;2022-07-24T05:46:07;95191.28;;;30.65;41.92
28626;BME280;18905;42.668;23.364;2022-07-24T05:48:32;95174.13;;;30.67;41.80
28626;BME280;18905;42.668;23.364;2022-07-24T05:50:58;95171.06;;;30.77;41.75
28626;BME280;18905;42.668;23.364;2022-07-24T05:53:24;95167.25;;;30.96;41.08
28626;BME280;18905;42.668;23.364;2022-07-24T05:55:50;95174.03;;;30.70;41.93
28626;BME280;18905;42.668;23.364;2022-07-24T05:58:16;95177.19;;;30.97;41.28
28626;BME280;18905;42.668;23.364;2022-07-24T06:00:42;95172.94;;;31.05;40.53
28626;BME280;18905;42.668;23.364;2022-07-24T06:03:07;95145.72;;;31.09;40.66
28626;BME280;18905;42.668;23.364;2022-07-24T06:05:33;95173.41;;;31.41;39.65
28626;BME280;18905;42.668;23.364;2022-07-24T06:07:58;95154.31;;;31.40;39.77
28626;BME280;18905;42.668;23.364;2022-07-24T06:10:24;95176.38;;;31.59;39.13
28626;BME280;18905;42.668;23.364;2022-07-24T06:12:49;95177.84;;;31.26;40.19
28626;BME280;18905;42.668;23.364;2022-07-24T06:15:15;95184.19;;;30.89;40.25
28626;BME280;18905;42.668;23.364;2022-07-24T06:17:40;95156.44;;;30.73;40.74
28626;BME280;18905;42.668;23.364;2022-07-24T06:20:07;95186.00;;;31.21;40.30
28626;BME280;18905;42.668;23.364;2022-07-24T06:22:33;95126.91;;;30.76;40.02
28626;BME280;18905;42.668;23.364;2022-07-24T06:24:58;95171.69;;;31.56;40.29
28626;BME280;18905;42.668;23.364;2022-07-24T06:27:24;95171.44;;;31.76;38.98
28626;BME280;18905;42.668;23.364;2022-07-24T06:29:49;95167.75;;;30.66;41.42
28626;BME280;18905;42.668;23.364;2022-07-24T06:32:14;95152.53;;;31.21;40.44
28626;BME280;18905;42.668;23.364;2022-07-24T06:34:40;95165.97;;;31.72;39.35
28626;BME280;18905;42.668;23.364;2022-07-24T06:37:05;95163.25;;;31.69;39.68
28626;BME280;18905;42.668;23.364;2022-07-24T06:39:30;95157.91;;;31.74;39.71
28626;BME280;18905;42.668;23.364;2022-07-24T06:41:56;95141.03;;;31.78;40.97
28626;BME280;18905;42.668;23.364;2022-07-24T06:44:21;95157.91;;;31.74;40.08
28626;BME280;18905;42.668;23.364;2022-07-24T06:46:48;95156.47;;;32.25;39.07
28626;BME280;18905;42.668;23.364;2022-07-24T06:49:13;95137.69;;;32.26;39.76
28626;BME280;18905;42.668;23.364;2022-07-24T06:51:39;95153.28;;;32.14;40.07
28626;BME280;18905;42.668;23.364;2022-07-24T06:54:04;95134.00;;;31.73;39.95
28626;BME280;18905;42.668;23.364;2022-07-24T06:56:30;95153.03;;;32.21;40.04
28626;BME280;18905;42.668;23.364;2022-07-24T06:58:56;95150.31;;;32.30;38.26
28626;BME280;18905;42.668;23.364;2022-07-24T07:01:21;95092.66;;;32.24;38.17
28626;BME280;18905;42.668;23.364;2022-07-24T07:03:51;95137.47;;;32.85;38.10
28626;BME280;18905;42.668;23.364;2022-07-24T07:06:17;95117.72;;;33.28;36.82
28626;BME280;18905;42.668;23.364;2022-07-24T07:08:42;95134.19;;;33.26;36.55
28626;BME280;18905;42.668;23.364;2022-07-24T07:11:07;95098.13;;;32.79;35.87
28626;BME280;18905;42.668;23.364;2022-07-24T07:13:33;95140.59;;;32.22;38.42
28626;BME280;18905;42.668;23.364;2022-07-24T07:15:58;95137.28;;;32.79;36.75
28626;BME280;18905;42.668;23.364;2022-07-24T07:18:23;95136.97;;;32.86;37.77
28626;BME280;18905;42.668;23.364;2022-07-24T07:20:49;95138.69;;;31.76;38.69
28626;BME280;18905;42.668;23.364;2022-07-24T07:23:22;95148.22;;;32.00;38.07
28626;BME280;18905;42.668;23.364;2022-07-24T07:25:47;95147.31;;;32.25;38.35
28626;BME280;18905;42.668;23.364;2022-07-24T07:28:13;95141.19;;;31.62;38.88
28626;BME280;18905;42.668;23.364;2022-07-24T07:30:38;95133.25;;;32.28;37.84
28626;BME280;18905;42.668;23.364;2022-07-24T07:33:04;95141.03;;;32.85;37.97
28626;BME280;18905;42.668;23.364;2022-07-24T07:35:29;95124.97;;;33.07;37.43
28626;BME280;18905;42.668;23.364;2022-07-24T07:37:54;95133.19;;;33.59;36.38
28626;BME280;18905;42.668;23.364;2022-07-24T07:40:20;95119.84;;;34.44;34.39
28626;BME280;18905;42.668;23.364;2022-07-24T07:42:46;95134.28;;;35.11;33.08
28626;BME280;18905;42.668;23.364;2022-07-24T07:45:14;95128.00;;;35.49;33.62
28626;BME280;18905;42.668;23.364;2022-07-24T07:47:39;95135.91;;;36.74;31.79
28626;BME280;18905;42.668;23.364;2022-07-24T07:50:05;95129.56;;;36.21;31.95
28626;BME280;18905;42.668;23.364;2022-07-24T07:52:31;95137.34;;;35.55;32.13
28626;BME280;18905;42.668;23.364;2022-07-24T07:54:56;95128.31;;;35.75;32.49
28626;BME280;18905;42.668;23.364;2022-07-24T07:57:22;95128.56;;;35.86;31.93
28626;BME280;18905;42.668;23.364;2022-07-24T07:59:48;95128.94;;;35.55;32.42
28626;BME280;18905;42.668;23.364;2022-07-24T08:02:13;95121.22;;;35.88;31.41
28626;BME280;18905;42.668;23.364;2022-07-24T08:04:41;95133.47;;;36.96;30.69
28626;BME280;18905;42.668;23.364;2022-07-24T08:07:06;95133.22;;;37.43;30.17
28626;BME280;18905;42.668;23.364;2022-07-24T08:09:31;95128.47;;;37.34;30.01
28626;BME280;18905;42.668;23.364;2022-07-24T08:11:57;95124.88;;;37.34;30.03
28626;BME280;18905;42.668;23.364;2022-07-24T08:14:22;95125.13;;;36.58;29.98
28626;BME280;18905;42.668;23.364;2022-07-24T08:16:48;95131.44;;;36.53;30.39
28626;BME280;18905;42.668;23.364;2022-07-24T08:19:13;95131.56;;;36.73;29.63
28626;BME280;18905;42.668;23.364;2022-07-24T08:21:38;95123.97;;;36.79;29.70
28626;BME280;18905;42.668;23.364;2022-07-24T08:24:04;95133.97;;;36.13;30.20
28626;BME280;18905;42.668;23.364;2022-07-24T08:26:30;95112.03;;;36.02;30.29
28626;BME280;18905;42.668;23.364;2022-07-24T08:28:57;95115.88;;;35.90;30.24
28626;BME280;18905;42.668;23.364;2022-07-24T08:31:24;95117.84;;;35.52;30.42
28626;BME280;18905;42.668;23.364;2022-07-24T08:33:50;95126.13;;;35.55;30.00
28626;BME280;18905;42.668;23.364;2022-07-24T08:36:15;95130.59;;;35.62;30.53
28626;BME280;18905;42.668;23.364;2022-07-24T08:38:41;95131.59;;;36.20;30.48
28626;BME280;18905;42.668;23.364;2022-07-24T08:41:07;95129.09;;;36.37;30.54
28626;BME280;18905;42.668;23.364;2022-07-24T08:43:32;95122.41;;;36.49;29.44
28626;BME280;18905;42.668;23.364;2022-07-24T08:45:59;95125.63;;;37.14;28.90
28626;BME280;18905;42.668;23.364;2022-07-24T08:48:29;95119.34;;;36.76;29.50
28626;BME280;18905;42.668;23.364;2022-07-24T08:50:57;95115.94;;;36.72;30.66
28626;BME280;18905;42.668;23.364;2022-07-24T08:53:23;95125.81;;;36.96;30.19
28626;BME280;18905;42.668;23.364;2022-07-24T08:55:49;95104.06;;;36.97;30.55
28626;BME280;18905;42.668;23.364;2022-07-24T08:58:15;95124.53;;;37.12;30.64
28626;BME280;18905;42.668;23.364;2022-07-24T09:00:41;95117.34;;;37.11;32.76
28626;BME280;18905;42.668;23.364;2022-07-24T09:03:07;95110.69;;;37.43;30.18
28626;BME280;18905;42.668;23.364;2022-07-24T09:05:32;95110.91;;;36.76;30.59
28626;BME280;18905;42.668;23.364;2022-07-24T09:08:07;95103.03;;;36.80;30.57
28626;BME280;18905;42.668;23.364;2022-07-24T09:10:33;95110.59;;;36.88;33.39
28626;BME280;18905;42.668;23.364;2022-07-24T09:13:12;95116.44;;;37.68;29.98
28626;BME280;18905;42.668;23.364;2022-07-24T09:15:47;95103.09;;;38.29;30.33
28626;BME280;18905;42.668;23.364;2022-07-24T09:18:33;95108.91;;;39.69;28.17
28626;BME280;18905;42.668;23.364;2022-07-24T09:20:59;95098.22;;;39.90;27.81
28626;BME280;18905;42.668;23.364;2022-07-24T09:23:40;95106.06;;;38.96;28.16
28626;BME280;18905;42.668;23.364;2022-07-24T09:26:05;95102.69;;;39.60;27.60
28626;BME280;18905;42.668;23.364;2022-07-24T09:28:52;95098.50;;;40.72;26.31
28626;BME280;18905;42.668;23.364;2022-07-24T09:31:18;95101.34;;;41.27;25.67
28626;BME280;18905;42.668;23.364;2022-07-24T09:33:43;95091.22;;;40.38;25.83
28626;BME280;18905;42.668;23.364;2022-07-24T09:36:14;95093.97;;;39.27;28.19
28626;BME280;18905;42.668;23.364;2022-07-24T09:38:47;95102.31;;;39.78;27.60
28626;BME280;18905;42.668;23.364;2022-07-24T09:41:22;95103.53;;;40.19;27.07
28626;BME280;18905;42.668;23.364;2022-07-24T09:43:59;95096.44;;;41.28;26.41
28626;BME280;18905;42.668;23.364;2022-07-24T09:46:25;95100.06;;;41.34;25.51
28626;BME280;18905;42.668;23.364;2022-07-24T09:48:58;95087.69;;;41.54;25.51
28626;BME280;18905;42.668;23.364;2022-07-24T09:51:26;95091.53;;;41.56;25.43
28626;BME280;18905;42.668;23.364;2022-07-24T09:53:55;95084.84;;;41.48;24.89
28626;BME280;18905;42.668;23.364;2022-07-24T09:56:21;95078.66;;;42.23;24.35
28626;BME280;18905;42.668;23.364;2022-07-24T10:01:15;95061.47;;;41.03;25.57
28626;BME280;18905;42.668;23.364;2022-07-24T10:03:42;95072.84;;;40.01;26.27
28626;BME280;18905;42.668;23.364;2022-07-24T10:06:10;95073.88;;;38.52;27.30
28626;BME280;18905;42.668;23.364;2022-07-24T10:08:38;95064.97;;;38.13;24.54
28626;BME280;18905;42.668;23.364;2022-07-24T10:11:04;95047.47;;;39.64;22.36
28626;BME280;18905;42.668;23.364;2022-07-24T10:13:30;95047.66;;;40.08;23.78
28626;BME280;18905;42.668;23.364;2022-07-24T10:18:45;95059.41;;;37.99;25.67
28626;BME280;18905;42.668;23.364;2022-07-24T10:21:15;95055.41;;;38.82;25.34
28626;BME280;18905;42.668;23.364;2022-07-24T10:26:46;95033.09;;;38.53;26.96
28626;BME280;18905;42.668;23.364;2022-07-24T10:29:18;95051.28;;;38.83;26.86
28626;BME280;18905;42.668;23.364;2022-07-24T10:31:55;95048.19;;;39.12;25.05
28626;BME280;18905;42.668;23.364;2022-07-24T10:34:27;95046.53;;;40.70;24.57
28626;BME280;18905;42.668;23.364;2022-07-24T10:37:07;95035.03;;;40.04;25.28
28626;BME280;18905;42.668;23.364;2022-07-24T10:45:31;95034.06;;;40.12;24.86
28626;BME280;18905;42.668;23.364;2022-07-24T10:47:57;95018.34;;;40.00;24.53
28626;BME280;18905;42.668;23.364;2022-07-24T10:50:23;95020.78;;;39.71;24.62
28626;BME280;18905;42.668;23.364;2022-07-24T10:52:49;95036.69;;;40.32;24.52
28626;BME280;18905;42.668;23.364;2022-07-24T10:55:30;95033.31;;;40.28;24.85
28626;BME280;18905;42.668;23.364;2022-07-24T11:00:35;95032.56;;;40.50;25.32
28626;BME280;18905;42.668;23.364;2022-07-24T11:03:29;95014.34;;;40.84;24.82
28626;BME280;18905;42.668;23.364;2022-07-24T11:06:08;95014.19;;;38.95;25.62
28626;BME280;18905;42.668;23.364;2022-07-24T11:09:00;95014.50;;;38.66;26.23
28626;BME280;18905;42.668;23.364;2022-07-24T11:11:26;95005.97;;;39.34;24.51
28626;BME280;18905;42.668;23.364;2022-07-24T11:13:54;95005.56;;;39.52;24.30
28626;BME280;18905;42.668;23.364;2022-07-24T11:16:24;94998.47;;;39.25;24.73
28626;BME280;18905;42.668;23.364;2022-07-24T11:21:34;94990.75;;;37.76;26.78
28626;BME280;18905;42.668;23.364;2022-07-24T11:26:52;95005.22;;;37.64;27.18
28626;BME280;18905;42.668;23.364;2022-07-24T11:29:23;94992.41;;;37.63;27.05
28626;BME280;18905;42.668;23.364;2022-07-24T11:31:54;94997.06;;;38.11;26.82
28626;BME280;18905;42.668;23.364;2022-07-24T11:34:20;94975.84;;;38.78;25.66
28626;BME280;18905;42.668;23.364;2022-07-24T11:36:48;94997.72;;;39.30;24.57
28626;BME280;18905;42.668;23.364;2022-07-24T11:39:15;94997.75;;;39.36;24.59
28626;BME280;18905;42.668;23.364;2022-07-24T11:41:50;94991.66;;;39.43;24.18
28626;BME280;18905;42.668;23.364;2022-07-24T11:46:56;94991.94;;;38.72;27.24
28626;BME280;18905;42.668;23.364;2022-07-24T11:49:24;94992.75;;;39.14;27.03
28626;BME280;18905;42.668;23.364;2022-07-24T11:51:51;94983.25;;;38.75;28.67
28626;BME280;18905;42.668;23.364;2022-07-24T11:54:22;94990.19;;;38.80;26.90
28626;BME280;18905;42.668;23.364;2022-07-24T11:56:48;94990.19;;;38.74;25.38
28626;BME280;18905;42.668;23.364;2022-07-24T11:59:29;94978.66;;;37.30;28.18
28626;BME280;18905;42.668;23.364;2022-07-24T12:02:06;94950.50;;;36.41;28.08
28626;BME280;18905;42.668;23.364;2022-07-24T12:04:32;94958.00;;;37.79;27.59
28626;BME280;18905;42.668;23.364;2022-07-24T12:06:58;94972.53;;;37.72;26.92
28626;BME280;18905;42.668;23.364;2022-07-24T12:09:24;94964.63;;;37.76;28.22
28626;BME280;18905;42.668;23.364;2022-07-24T12:11:49;94977.19;;;38.26;27.11
28626;BME280;18905;42.668;23.364;2022-07-24T12:14:16;94976.44;;;38.31;27.84
28626;BME280;18905;42.668;23.364;2022-07-24T12:16:43;94967.56;;;37.07;29.88
28626;BME280;18905;42.668;23.364;2022-07-24T12:19:15;94971.13;;;37.87;28.84
28626;BME280;18905;42.668;23.364;2022-07-24T12:21:42;94967.25;;;37.59;28.44
28626;BME280;18905;42.668;23.364;2022-07-24T12:24:09;94959.97;;;37.53;28.22
28626;BME280;18905;42.668;23.364;2022-07-24T12:26:51;94965.72;;;38.35;27.20
28626;BME280;18905;42.668;23.364;2022-07-24T12:29:17;94952.94;;;39.07;26.47
28626;BME280;18905;42.668;23.364;2022-07-24T12:31:43;94946.38;;;39.96;26.17
28626;BME280;18905;42.668;23.364;2022-07-24T12:34:08;94960.69;;;39.76;26.49
28626;BME280;18905;42.668;23.364;2022-07-24T12:36:34;94954.44;;;39.50;25.58
28626;BME280;18905;42.668;23.364;2022-07-24T12:39:00;94940.75;;;40.40;25.95
28626;BME280;18905;42.668;23.364;2022-07-24T12:41:27;94959.00;;;40.17;25.55
28626;BME280;18905;42.668;23.364;2022-07-24T12:43:55;94957.47;;;40.16;25.65
28626;BME280;18905;42.668;23.364;2022-07-24T12:46:41;94943.84;;;40.42;24.90
28626;BME280;18905;42.668;23.364;2022-07-24T12:49:11;94938.94;;;40.26;24.90
28626;BME280;18905;42.668;23.364;2022-07-24T12:51:57;94937.94;;;40.29;25.51
28626;BME280;18905;42.668;23.364;2022-07-24T12:54:34;94929.69;;;40.42;25.49
28626;BME280;18905;42.668;23.364;2022-07-24T12:57:08;94932.47;;;38.75;26.99
28626;BME280;18905;42.668;23.364;2022-07-24T12:59:39;94933.78;;;38.85;26.35
28626;BME280;18905;42.668;23.364;2022-07-24T13:02:07;94919.63;;;39.22;26.57
28626;BME280;18905;42.668;23.364;2022-07-24T13:04:40;94904.06;;;38.90;25.65
28626;BME280;18905;42.668;23.364;2022-07-24T13:07:07;94911.19;;;38.80;26.93
28626;BME280;18905;42.668;23.364;2022-07-24T13:09:34;94920.66;;;40.10;25.17
28626;BME280;18905;42.668;23.364;2022-07-24T13:11:59;94907.56;;;40.57;24.52
28626;BME280;18905;42.668;23.364;2022-07-24T13:14:25;94867.00;;;38.35;27.19